createdAt,value
2018-02-07T00:01:27.367Z,7.55
2018-02-07T00:03:54.935Z,7.45
2018-02-07T00:06:22.483Z,7.56
2018-02-07T00:08:50.459Z,7.76
2018-02-07T00:11:17.994Z,7.78
2018-02-07T00:13:45.935Z,7.75
2018-02-07T00:16:13.474Z,7.70
2018-02-07T00:18:41.863Z,7.72
2018-02-07T00:21:09.447Z,7.76
2018-02-07T00:23:37.022Z,7.91
2018-02-07T00:26:04.598Z,7.96
2018-02-07T00:28:32.146Z,7.99
2018-02-07T00:30:59.694Z,8.00
2018-02-07T00:33:27.286Z,8.00
2018-02-07T00:35:54.842Z,7.96
2018-02-07T00:38:22.389Z,7.78
2018-02-07T00:40:49.973Z,7.74
2018-02-07T00:43:17.554Z,7.74
2018-02-07T00:45:45.098Z,7.76
2018-02-07T00:48:12.687Z,7.37
2018-02-07T00:50:40.243Z,7.33
2018-02-07T00:53:07.786Z,7.45
2018-02-07T00:55:35.370Z,7.50
2018-02-07T00:58:02.913Z,7.52
2018-02-07T01:00:30.472Z,7.42
2018-02-07T01:02:58.049Z,7.14
2018-02-07T01:05:25.603Z,7.22
2018-02-07T01:07:53.262Z,7.24
2018-02-07T01:10:20.801Z,6.93
2018-02-07T01:12:48.355Z,6.90
2018-02-07T01:15:15.933Z,6.88
2018-02-07T01:17:43.517Z,7.11
2018-02-07T01:20:11.063Z,7.09
2018-02-07T01:22:38.604Z,6.95
2018-02-07T01:25:06.223Z,6.70
2018-02-07T01:27:34.247Z,6.53
2018-02-07T01:30:02.100Z,6.63
2018-02-07T01:32:29.691Z,6.77
2018-02-07T01:34:57.544Z,6.80
2018-02-07T01:37:25.125Z,6.76
2018-02-07T01:39:52.675Z,6.97
2018-02-07T01:42:20.257Z,7.13
2018-02-07T01:44:47.797Z,7.22
2018-02-07T01:47:15.337Z,7.24
2018-02-07T01:49:43.137Z,7.30
2018-02-07T01:52:10.692Z,7.36
2018-02-07T01:54:38.286Z,7.49
2018-02-07T01:57:05.821Z,7.62
2018-02-07T01:59:33.923Z,7.69
2018-02-07T02:02:01.471Z,7.73
2018-02-07T02:04:29.018Z,7.75
2018-02-07T02:06:56.597Z,7.78
2018-02-07T02:09:24.178Z,7.72
2018-02-07T02:11:52.026Z,6.60
2018-02-07T02:14:19.746Z,6.58
2018-02-07T02:16:47.281Z,5.72
2018-02-07T02:19:14.868Z,5.46
2018-02-07T02:21:42.419Z,5.16
2018-02-07T02:24:10.006Z,4.79
2018-02-07T02:26:37.555Z,4.94
2018-02-07T02:29:05.147Z,5.14
2018-02-07T02:31:32.925Z,5.13
2018-02-07T02:34:00.512Z,5.74
2018-02-07T02:36:39.954Z,5.97
2018-02-07T02:39:07.546Z,5.36
2018-02-07T02:41:35.086Z,4.97
2018-02-07T02:44:02.688Z,4.64
2018-02-07T02:46:30.278Z,4.66
2018-02-07T02:48:57.822Z,5.30
2018-02-07T02:51:25.406Z,5.80
2018-02-07T02:53:53.238Z,6.08
2018-02-07T02:56:20.823Z,6.40
2018-02-07T02:58:48.407Z,6.69
2018-02-07T03:01:16.233Z,6.23
2018-02-07T03:03:43.831Z,5.93
2018-02-07T03:06:11.418Z,6.27
2018-02-07T03:08:38.953Z,6.26
2018-02-07T03:11:06.560Z,6.40
2018-02-07T03:13:34.102Z,6.52
2018-02-07T03:16:01.654Z,6.63
2018-02-07T03:18:29.242Z,6.63
2018-02-07T03:20:56.826Z,6.83
2018-02-07T03:23:24.422Z,6.06
2018-02-07T03:25:52.001Z,5.48
2018-02-07T03:28:19.547Z,5.68
2018-02-07T03:30:47.125Z,6.19
2018-02-07T03:33:14.749Z,5.47
2018-02-07T03:35:42.330Z,5.92
2018-02-07T03:38:09.865Z,6.37
2018-02-07T03:40:37.455Z,6.68
2018-02-07T03:43:04.993Z,6.99
2018-02-07T03:45:32.856Z,6.90
2018-02-07T03:48:00.459Z,7.00
2018-02-07T03:50:28.005Z,7.23
2018-02-07T03:52:55.559Z,7.40
2018-02-07T03:55:23.133Z,7.42
2018-02-07T03:57:50.743Z,7.38
2018-02-07T04:00:18.322Z,6.45
2018-02-07T04:02:45.910Z,6.16
2018-02-07T04:05:13.454Z,6.62
2018-02-07T04:07:41.068Z,6.95
2018-02-07T04:10:09.140Z,7.14
2018-02-07T04:12:36.731Z,7.24
2018-02-07T04:15:04.499Z,7.28
2018-02-07T04:17:32.262Z,7.32
2018-02-07T04:19:59.843Z,7.32
2018-02-07T04:22:27.386Z,7.36
2018-02-07T04:24:54.978Z,7.52
2018-02-07T04:27:22.521Z,7.57
2018-02-07T04:29:50.095Z,7.61
2018-02-07T04:32:18.510Z,7.50
2018-02-07T04:34:46.047Z,7.32
2018-02-07T04:37:13.628Z,6.82
2018-02-07T04:39:41.170Z,5.93
2018-02-07T04:42:08.745Z,5.65
2018-02-07T04:44:36.312Z,6.21
2018-02-07T04:47:03.899Z,6.66
2018-02-07T04:49:31.861Z,6.86
2018-02-07T04:51:59.434Z,7.06
2018-02-07T04:54:27.015Z,7.25
2018-02-07T04:56:54.590Z,7.40
2018-02-07T04:59:22.715Z,7.36
2018-02-07T05:01:50.265Z,7.54
2018-02-07T05:04:17.851Z,7.70
2018-02-07T05:06:45.396Z,7.86
2018-02-07T05:09:12.982Z,8.04
2018-02-07T05:11:40.800Z,8.08
2018-02-07T05:14:08.740Z,8.18
2018-02-07T05:16:36.278Z,8.20
2018-02-07T05:19:04.347Z,8.10
2018-02-07T05:21:31.912Z,7.61
2018-02-07T05:23:59.441Z,7.46
2018-02-07T05:26:27.026Z,7.41
2018-02-07T05:28:54.567Z,7.54
2018-02-07T05:31:22.157Z,7.10
2018-02-07T05:33:49.690Z,6.49
2018-02-07T05:36:17.229Z,5.85
2018-02-07T05:38:45.074Z,5.59
2018-02-07T05:41:12.610Z,6.01
2018-02-07T05:43:40.282Z,6.38
2018-02-07T05:46:07.962Z,6.30
2018-02-07T05:48:35.497Z,6.79
2018-02-07T05:51:03.050Z,6.83
2018-02-07T05:53:30.649Z,6.29
2018-02-07T05:55:58.250Z,5.88
2018-02-07T05:58:25.785Z,6.04
2018-02-07T06:00:53.336Z,6.10
2018-02-07T06:03:20.928Z,6.18
2018-02-07T06:05:48.485Z,6.61
2018-02-07T06:08:16.017Z,6.99
2018-02-07T06:10:43.607Z,7.36
2018-02-07T06:13:11.141Z,7.60
2018-02-07T06:15:39.508Z,7.84
2018-02-07T06:18:07.099Z,8.02
2018-02-07T06:20:34.860Z,8.08
2018-02-07T06:23:02.449Z,8.17
2018-02-07T06:25:30.793Z,8.37
2018-02-07T06:27:58.338Z,8.53
2018-02-07T06:30:25.981Z,8.66
2018-02-07T06:32:53.502Z,8.78
2018-02-07T06:35:21.233Z,8.91
2018-02-07T06:37:48.792Z,9.03
2018-02-07T06:40:16.330Z,9.13
2018-02-07T06:42:43.919Z,9.24
2018-02-07T06:45:11.522Z,9.31
2018-02-07T06:47:39.187Z,9.39
2018-02-07T06:50:06.878Z,9.43
2018-02-07T06:52:34.612Z,9.58
2018-02-07T06:55:02.473Z,9.68
2018-02-07T06:57:30.102Z,9.69
2018-02-07T06:59:58.875Z,9.69
2018-02-07T07:02:26.632Z,9.74
2018-02-07T07:04:54.216Z,9.76
2018-02-07T07:07:21.763Z,9.89
2018-02-07T07:09:49.350Z,9.97
2018-02-07T07:12:16.900Z,10.03
2018-02-07T07:14:45.146Z,10.05
2018-02-07T07:17:12.733Z,10.03
2018-02-07T07:19:40.676Z,10.14
2018-02-07T07:22:08.285Z,10.18
2018-02-07T07:24:36.133Z,10.21
2018-02-07T07:27:05.394Z,10.22
2018-02-07T07:29:33.011Z,10.40
2018-02-07T07:32:00.608Z,10.56
2018-02-07T07:34:28.673Z,10.65
2018-02-07T07:36:56.956Z,10.59
2018-02-07T07:39:24.505Z,10.56
2018-02-07T07:41:52.060Z,10.54
2018-02-07T07:44:19.646Z,10.51
2018-02-07T07:46:47.197Z,10.51
2018-02-07T07:49:16.378Z,10.49
2018-02-07T07:51:44.085Z,10.60
2018-02-07T07:54:11.678Z,10.69
2018-02-07T07:56:39.239Z,10.71
2018-02-07T07:59:06.832Z,10.67
2018-02-07T08:01:34.425Z,10.64
2018-02-07T08:04:02.084Z,10.63
2018-02-07T08:06:29.630Z,10.63
2018-02-07T08:08:57.231Z,10.62
2018-02-07T08:11:25.549Z,10.63
2018-02-07T08:13:53.396Z,10.61
2018-02-07T08:16:20.992Z,10.61
2018-02-07T08:18:48.673Z,10.72
2018-02-07T08:21:16.382Z,10.82
2018-02-07T08:23:44.392Z,10.82
2018-02-07T08:26:11.978Z,10.86
2018-02-07T08:28:41.216Z,10.85
2018-02-07T08:31:08.806Z,10.85
2018-02-07T08:33:36.480Z,10.78
2018-02-07T08:36:04.070Z,10.76
2018-02-07T08:38:31.907Z,10.75
2018-02-07T08:40:59.725Z,10.74
2018-02-07T08:43:27.314Z,10.87
2018-02-07T08:45:54.854Z,10.95
2018-02-07T08:48:22.428Z,10.94
2018-02-07T08:50:51.044Z,10.90
2018-02-07T08:53:18.647Z,10.87
2018-02-07T08:55:46.245Z,10.96
2018-02-07T08:58:14.021Z,11.12
2018-02-07T09:00:41.578Z,11.26
2018-02-07T09:03:09.164Z,11.19
2018-02-07T09:05:37.856Z,11.10
2018-02-07T09:08:05.415Z,11.12
2018-02-07T09:10:33.144Z,11.09
2018-02-07T09:13:01.524Z,11.04
2018-02-07T09:15:29.250Z,10.99
2018-02-07T09:17:57.552Z,10.96
2018-02-07T09:20:25.444Z,10.93
2018-02-07T09:22:53.044Z,10.89
2018-02-07T09:25:21.573Z,10.97
2018-02-07T09:27:49.173Z,10.86
2018-02-07T09:30:16.719Z,10.74
2018-02-07T09:32:44.626Z,10.66
2018-02-07T09:35:12.213Z,10.23
2018-02-07T09:37:40.278Z,9.82
2018-02-07T09:40:07.858Z,9.73
2018-02-07T09:42:35.454Z,9.82
2018-02-07T09:45:03.008Z,10.08
2018-02-07T09:47:31.287Z,10.31
2018-02-07T09:49:59.834Z,10.46
2018-02-07T09:52:27.588Z,10.50
2018-02-07T09:54:55.182Z,10.51
2018-02-07T09:57:22.727Z,10.31
2018-02-07T09:59:50.315Z,10.44
2018-02-07T10:02:18.851Z,10.55
2018-02-07T10:04:47.619Z,10.57
2018-02-07T10:07:15.179Z,10.61
2018-02-07T10:09:43.016Z,10.62
2018-02-07T10:12:11.327Z,10.71
2018-02-07T10:14:38.926Z,10.75
2018-02-07T10:17:06.480Z,10.75
2018-02-07T10:19:34.034Z,10.73
2018-02-07T10:22:01.624Z,10.74
2018-02-07T10:24:29.576Z,10.76
2018-02-07T10:26:57.162Z,10.78
2018-02-07T10:29:25.004Z,10.76
2018-02-07T10:31:52.549Z,10.68
2018-02-07T10:34:20.138Z,10.61
2018-02-07T10:36:47.704Z,10.62
2018-02-07T10:39:15.472Z,10.63
2018-02-07T10:41:43.054Z,10.57
2018-02-07T10:44:10.604Z,10.55
2018-02-07T10:46:38.210Z,10.57
2018-02-07T10:49:06.795Z,10.53
2018-02-07T10:51:34.439Z,10.49
2018-02-07T10:54:02.965Z,10.60
2018-02-07T10:56:30.875Z,10.64
2018-02-07T10:58:58.412Z,10.70
2018-02-07T11:01:25.986Z,10.71
2018-02-07T11:03:54.505Z,10.68
2018-02-07T11:06:22.056Z,10.48
2018-02-07T11:08:50.828Z,10.37
2018-02-07T11:11:18.439Z,10.40
2018-02-07T11:13:46.395Z,10.49
2018-02-07T11:16:14.878Z,10.59
2018-02-07T11:18:42.755Z,10.80
2018-02-07T11:21:12.630Z,10.89
2018-02-07T11:23:40.741Z,10.90
2018-02-07T11:26:08.959Z,10.96
2018-02-07T11:28:37.262Z,10.68
2018-02-07T11:31:04.865Z,10.62
2018-02-07T11:33:33.586Z,10.59
2018-02-07T11:36:01.986Z,10.32
2018-02-07T11:38:30.063Z,10.03
2018-02-07T11:40:58.038Z,9.93
2018-02-07T11:43:25.587Z,10.10
2018-02-07T11:45:53.852Z,10.34
2018-02-07T11:48:21.575Z,10.31
2018-02-07T11:50:49.126Z,10.34
2018-02-07T11:53:16.683Z,10.56
2018-02-07T11:55:44.284Z,10.63
2018-02-07T11:58:11.882Z,10.55
2018-02-07T12:00:39.475Z,10.39
2018-02-07T12:03:07.039Z,10.50
2018-02-07T12:05:35.170Z,10.58
2018-02-07T12:08:02.767Z,10.22
2018-02-07T12:10:30.375Z,10.41
2018-02-07T12:12:57.909Z,10.55
2018-02-07T12:15:25.610Z,10.57
2018-02-07T12:17:53.206Z,10.59
2018-02-07T12:20:20.827Z,10.52
2018-02-07T12:22:48.386Z,10.27
2018-02-07T12:25:15.937Z,10.05
2018-02-07T12:27:43.531Z,9.99
2018-02-07T12:30:11.339Z,10.08
2018-02-07T12:32:38.923Z,10.12
2018-02-07T12:35:06.482Z,10.20
2018-02-07T12:37:34.903Z,10.09
2018-02-07T12:40:04.138Z,10.07
2018-02-07T12:42:31.725Z,10.06
2018-02-07T12:44:59.313Z,10.09
2018-02-07T12:47:27.780Z,10.24
2018-02-07T12:49:55.379Z,10.15
2018-02-07T12:52:22.918Z,10.16
2018-02-07T12:54:50.538Z,10.25
2018-02-07T12:57:18.078Z,10.29
2018-02-07T12:59:45.683Z,10.36
2018-02-07T13:02:13.231Z,10.29
2018-02-07T13:04:40.768Z,10.29
2018-02-07T13:07:08.355Z,9.60
2018-02-07T13:09:36.186Z,9.35
2018-02-07T13:12:04.799Z,9.55
2018-02-07T13:14:32.382Z,9.76
2018-02-07T13:17:00.820Z,10.09
2018-02-07T13:19:28.386Z,10.12
2018-02-07T13:21:56.135Z,10.18
2018-02-07T13:24:23.721Z,10.10
2018-02-07T13:26:51.302Z,9.92
2018-02-07T13:29:19.286Z,10.11
2018-02-07T13:31:46.887Z,10.25
2018-02-07T13:34:14.475Z,10.25
2018-02-07T13:36:42.429Z,10.03
2018-02-07T13:39:10.016Z,9.69
2018-02-07T13:41:37.559Z,9.23
2018-02-07T13:44:05.143Z,9.38
2018-02-07T13:46:32.749Z,8.81
2018-02-07T13:49:00.461Z,8.90
2018-02-07T13:51:28.308Z,9.01
2018-02-07T13:53:55.850Z,8.83
2018-02-07T13:56:23.453Z,8.21
2018-02-07T13:58:50.987Z,8.16
2018-02-07T14:01:18.592Z,8.62
2018-02-07T14:03:46.326Z,8.94
2018-02-07T14:06:13.905Z,9.20
2018-02-07T14:08:41.446Z,9.37
2018-02-07T14:11:08.990Z,8.96
2018-02-07T14:13:36.587Z,8.41
2018-02-07T14:16:04.122Z,8.01
2018-02-07T14:18:31.674Z,8.33
2018-02-07T14:20:59.468Z,8.64
2018-02-07T14:23:27.024Z,8.25
2018-02-07T14:25:54.558Z,8.65
2018-02-07T14:28:22.236Z,9.04
2018-02-07T14:30:49.771Z,9.29
2018-02-07T14:33:17.313Z,9.48
2018-02-07T14:35:45.280Z,8.92
2018-02-07T14:38:12.817Z,8.43
2018-02-07T14:40:40.471Z,8.56
2018-02-07T14:43:08.059Z,8.77
2018-02-07T14:45:36.448Z,8.19
2018-02-07T14:48:04.035Z,7.98
2018-02-07T14:50:31.699Z,8.45
2018-02-07T14:52:59.977Z,8.89
2018-02-07T14:55:27.534Z,8.79
2018-02-07T14:57:55.326Z,8.26
2018-02-07T15:00:23.521Z,8.10
2018-02-07T15:02:51.989Z,8.56
2018-02-07T15:05:20.296Z,8.94
2018-02-07T15:07:47.889Z,9.18
2018-02-07T15:10:15.426Z,9.41
2018-02-07T15:12:42.953Z,9.61
2018-02-07T15:15:10.917Z,9.16
2018-02-07T15:17:38.477Z,9.05
2018-02-07T15:20:06.038Z,8.76
2018-02-07T15:22:33.622Z,9.04
2018-02-07T15:25:03.857Z,9.30
2018-02-07T15:27:31.429Z,9.37
2018-02-07T15:29:59.370Z,9.49
2018-02-07T15:32:27.955Z,9.61
2018-02-07T15:34:55.557Z,9.57
2018-02-07T15:37:23.101Z,9.40
2018-02-07T15:39:50.647Z,9.39
2018-02-07T15:42:18.783Z,9.48
2018-02-07T15:44:46.322Z,9.52
2018-02-07T15:47:15.190Z,9.52
2018-02-07T15:49:42.785Z,9.45
2018-02-07T15:52:10.369Z,9.53
2018-02-07T15:54:37.902Z,9.63
2018-02-07T15:57:06.872Z,9.56
2018-02-07T15:59:35.852Z,9.45
2018-02-07T16:02:04.481Z,9.40
2018-02-07T16:04:32.131Z,9.31
2018-02-07T16:07:00.029Z,8.75
2018-02-07T16:09:27.626Z,7.93
2018-02-07T16:11:55.609Z,7.52
2018-02-07T16:14:23.939Z,7.87
2018-02-07T16:16:52.370Z,8.22
2018-02-07T16:19:19.995Z,7.93
2018-02-07T16:21:48.771Z,8.11
2018-02-07T16:24:16.611Z,8.24
2018-02-07T16:26:44.195Z,8.15
2018-02-07T16:29:11.730Z,8.43
2018-02-07T16:31:39.323Z,8.64
2018-02-07T16:34:07.013Z,8.74
2018-02-07T16:36:34.592Z,8.83
2018-02-07T16:39:02.130Z,8.21
2018-02-07T16:41:30.308Z,8.05
2018-02-07T16:43:57.898Z,8.40
2018-02-07T16:46:25.452Z,8.31
2018-02-07T16:48:52.986Z,8.00
2018-02-07T16:51:20.990Z,7.88
2018-02-07T16:53:49.982Z,8.07
2018-02-07T16:56:17.845Z,8.40
2018-02-07T16:58:46.290Z,8.49
2018-02-07T17:01:14.639Z,8.71
2018-02-07T17:03:42.634Z,8.86
2018-02-07T17:06:10.723Z,9.05
2018-02-07T17:08:39.254Z,9.08
2018-02-07T17:11:07.760Z,9.03
2018-02-07T17:13:35.695Z,9.06
2018-02-07T17:16:03.279Z,9.12
2018-02-07T17:18:31.381Z,9.20
2018-02-07T17:21:00.069Z,9.26
2018-02-07T17:23:27.619Z,9.27
2018-02-07T17:25:55.357Z,9.28
2018-02-07T17:28:23.918Z,9.31
2018-02-07T17:30:51.454Z,9.33
2018-02-07T17:33:19.083Z,9.11
2018-02-07T17:35:47.260Z,9.15
2018-02-07T17:38:15.915Z,9.23
2018-02-07T17:40:43.765Z,9.28
2018-02-07T17:43:11.322Z,9.22
2018-02-07T17:45:38.926Z,9.13
2018-02-07T17:48:07.318Z,9.02
2018-02-07T17:50:34.983Z,8.99
2018-02-07T17:53:03.339Z,9.09
2018-02-07T17:55:31.949Z,9.09
2018-02-07T17:58:01.756Z,9.12
2018-02-07T18:00:30.220Z,9.17
2018-02-07T18:02:58.883Z,9.15
2018-02-07T18:05:27.655Z,9.13
2018-02-07T18:07:56.380Z,9.22
2018-02-07T18:10:23.914Z,9.11
2018-02-07T18:12:52.376Z,9.09
2018-02-07T18:15:19.951Z,8.93
2018-02-07T18:17:48.631Z,8.99
2018-02-07T18:20:16.522Z,8.99
2018-02-07T18:22:44.054Z,8.96
2018-02-07T18:25:12.192Z,9.04
2018-02-07T18:27:40.147Z,9.13
2018-02-07T18:30:07.722Z,9.18
2018-02-07T18:32:35.502Z,9.21
2018-02-07T18:35:03.326Z,8.88
2018-02-07T18:37:31.066Z,8.56
2018-02-07T18:39:58.986Z,8.25
2018-02-07T18:42:26.854Z,8.34
2018-02-07T18:44:55.454Z,8.53
2018-02-07T18:47:25.350Z,8.51
2018-02-07T18:49:52.934Z,8.67
2018-02-07T18:52:20.518Z,8.59
2018-02-07T18:54:49.262Z,8.56
2018-02-07T18:57:17.976Z,8.67
2018-02-07T18:59:45.547Z,8.70
2018-02-07T19:02:13.940Z,8.32
2018-02-07T19:04:42.017Z,8.43
2018-02-07T19:07:09.545Z,8.53
2018-02-07T19:09:37.145Z,8.54
2018-02-07T19:12:04.681Z,8.48
2018-02-07T19:14:32.219Z,8.64
2018-02-07T19:16:59.814Z,8.67
2018-02-07T19:19:27.463Z,8.63
2018-02-07T19:21:55.466Z,8.80
2018-02-07T19:24:23.842Z,8.72
2018-02-07T19:26:52.380Z,8.57
2018-02-07T19:29:20.295Z,8.45
2018-02-07T19:31:47.831Z,8.28
2018-02-07T19:34:15.753Z,8.50
2018-02-07T19:36:45.867Z,8.63
2018-02-07T19:39:15.089Z,8.60
2018-02-07T19:41:43.506Z,8.64
2018-02-07T19:44:12.825Z,8.75
2018-02-07T19:46:40.546Z,8.43
2018-02-07T19:49:08.103Z,8.29
2018-02-07T19:51:35.691Z,8.43
2018-02-07T19:54:04.675Z,8.64
2018-02-07T19:56:33.666Z,8.81
2018-02-07T19:59:01.394Z,8.93
2018-02-07T20:01:29.223Z,9.05
2018-02-07T20:03:56.814Z,9.12
2018-02-07T20:06:26.185Z,9.19
2018-02-07T20:08:53.844Z,9.24
2018-02-07T20:11:23.253Z,9.26
2018-02-07T20:13:51.612Z,8.41
2018-02-07T20:16:20.156Z,7.84
2018-02-07T20:18:49.769Z,7.88
2018-02-07T20:21:17.687Z,8.19
2018-02-07T20:23:45.655Z,8.44
2018-02-07T20:26:13.608Z,8.59
2018-02-07T20:28:42.592Z,8.62
2018-02-07T20:31:10.130Z,8.66
2018-02-07T20:33:37.912Z,8.33
2018-02-07T20:36:06.936Z,7.96
2018-02-07T20:38:34.699Z,8.20
2018-02-07T20:41:02.245Z,8.19
2018-02-07T20:43:31.035Z,8.24
2018-02-07T20:45:59.874Z,8.44
2018-02-07T20:48:28.417Z,8.41
2018-02-07T20:50:56.562Z,8.47
2018-02-07T20:53:24.953Z,8.53
2018-02-07T20:55:52.703Z,8.63
2018-02-07T20:58:20.462Z,8.43
2018-02-07T21:00:48.376Z,8.01
2018-02-07T21:03:16.407Z,8.03
2018-02-07T21:05:44.849Z,8.23
2018-02-07T21:08:12.421Z,8.36
2018-02-07T21:10:39.967Z,8.38
2018-02-07T21:13:07.557Z,8.49
2018-02-07T21:15:35.445Z,7.91
2018-02-07T21:18:02.991Z,7.46
2018-02-07T21:20:30.575Z,7.65
2018-02-07T21:22:58.230Z,7.57
2018-02-07T21:25:27.406Z,7.77
2018-02-07T21:27:55.207Z,7.97
2018-02-07T21:30:24.734Z,7.30
2018-02-07T21:32:52.322Z,7.20
2018-02-07T21:35:19.857Z,7.41
2018-02-07T21:37:47.404Z,7.35
2018-02-07T21:40:15.058Z,6.90
2018-02-07T21:42:43.682Z,6.70
2018-02-07T21:45:11.770Z,6.60
2018-02-07T21:47:39.792Z,6.54
2018-02-07T21:50:11.271Z,6.52
2018-02-07T21:52:39.366Z,6.34
2018-02-07T21:55:06.902Z,6.41
2018-02-07T21:57:34.473Z,6.81
2018-02-07T22:00:02.055Z,6.59
2018-02-07T22:02:29.611Z,6.61
2018-02-07T22:04:57.203Z,6.42
2018-02-07T22:07:24.749Z,6.32
2018-02-07T22:09:52.285Z,6.36
2018-02-07T22:12:19.872Z,6.36
2018-02-07T22:14:47.458Z,6.58
2018-02-07T22:17:15.053Z,6.81
2018-02-07T22:19:43.174Z,6.51
2018-02-07T22:22:11.569Z,6.45
2018-02-07T22:24:39.105Z,6.67
2018-02-07T22:27:06.683Z,6.91
2018-02-07T22:29:34.275Z,7.20
2018-02-07T22:32:01.862Z,7.09
2018-02-07T22:34:29.445Z,6.85
2018-02-07T22:36:57.079Z,6.88
2018-02-07T22:39:24.623Z,7.15
2018-02-07T22:41:52.162Z,6.92
2018-02-07T22:44:19.889Z,6.98
2018-02-07T22:46:47.421Z,7.02
2018-02-07T22:49:15.006Z,6.83
2018-02-07T22:51:42.560Z,6.52
2018-02-07T22:54:10.646Z,6.49
2018-02-07T22:56:38.240Z,6.94
2018-02-07T22:59:06.172Z,7.04
2018-02-07T23:01:33.759Z,6.62
2018-02-07T23:04:01.290Z,6.47
2018-02-07T23:06:28.994Z,6.85
2018-02-07T23:08:56.570Z,6.92
2018-02-07T23:11:24.110Z,6.98
2018-02-07T23:13:51.696Z,7.31
2018-02-07T23:16:19.269Z,7.55
2018-02-07T23:18:46.814Z,7.46
2018-02-07T23:21:14.385Z,7.20
2018-02-07T23:23:41.913Z,7.16
2018-02-07T23:26:09.499Z,6.81
2018-02-07T23:28:37.189Z,6.51
2018-02-07T23:31:04.742Z,6.76
2018-02-07T23:33:32.314Z,7.22
2018-02-07T23:35:59.854Z,7.17
2018-02-07T23:38:27.455Z,6.99
2018-02-07T23:40:54.993Z,7.32
2018-02-07T23:43:22.581Z,7.51
2018-02-07T23:45:50.174Z,7.00
2018-02-07T23:48:17.718Z,6.75
2018-02-07T23:50:45.247Z,7.04
2018-02-07T23:53:12.835Z,7.41
2018-02-07T23:55:40.373Z,7.50
2018-02-07T23:58:08.006Z,7.02
